createdAt,value
2022-08-03T00:02:25.116Z,14.43
2022-08-03T00:07:30.058Z,14.57
2022-08-03T00:12:33.706Z,14.31
2022-08-03T00:17:52.916Z,14.30
2022-08-03T00:22:58.887Z,14.18
2022-08-03T00:28:02.792Z,14.06
2022-08-03T00:33:06.480Z,14.04
2022-08-03T00:38:13.287Z,14.14
2022-08-03T00:43:16.992Z,14.01
2022-08-03T00:48:33.295Z,13.67
2022-08-03T00:53:39.138Z,13.65
2022-08-03T00:58:44.723Z,13.72
2022-08-03T01:03:48.338Z,13.60
2022-08-03T01:09:03.669Z,13.69
2022-08-03T01:14:18.851Z,13.82
2022-08-03T01:19:40.959Z,13.74
2022-08-03T01:24:53.931Z,13.72
2022-08-03T01:30:05.839Z,13.69
2022-08-03T01:35:12.526Z,13.58
2022-08-03T01:40:18.706Z,13.52
2022-08-03T01:45:25.091Z,13.56
2022-08-03T01:50:30.736Z,13.37
2022-08-03T01:55:38.121Z,13.63
2022-08-03T02:00:44.752Z,13.43
2022-08-03T02:05:54.086Z,13.28
2022-08-03T02:11:12.138Z,13.42
2022-08-03T02:16:19.821Z,13.46
2022-08-03T02:21:57.006Z,13.36
2022-08-03T02:26:50.714Z,13.39
2022-08-03T02:31:59.119Z,13.37
2022-08-03T02:37:07.124Z,13.35
2022-08-03T02:42:13.290Z,13.30
2022-08-03T02:47:21.960Z,13.00
2022-08-03T02:52:29.220Z,13.23
2022-08-03T02:57:36.069Z,13.21
2022-08-03T03:02:43.903Z,13.14
2022-08-03T03:07:51.841Z,13.13
2022-08-03T03:12:58.587Z,13.10
2022-08-03T03:18:04.260Z,13.06
2022-08-03T03:23:10.343Z,13.05
2022-08-03T03:28:14.631Z,13.10
2022-08-03T03:33:20.025Z,12.96
2022-08-03T03:38:24.090Z,13.11
2022-08-03T03:43:29.471Z,13.06
2022-08-03T03:48:35.034Z,12.98
2022-08-03T03:53:38.705Z,12.99
2022-08-03T03:58:42.434Z,13.00
2022-08-03T04:03:47.576Z,13.09
2022-08-03T04:09:08.417Z,13.03
2022-08-03T04:14:15.831Z,13.04
2022-08-03T04:19:27.158Z,13.11
2022-08-03T04:24:35.500Z,13.24
2022-08-03T04:29:46.471Z,13.32
2022-08-03T04:34:56.330Z,13.36
2022-08-03T04:40:04.130Z,13.50
2022-08-03T04:45:12.784Z,13.59
2022-08-03T04:50:21.566Z,13.76
2022-08-03T04:55:40.657Z,13.87
2022-08-03T05:00:45.721Z,14.04
2022-08-03T05:05:50.921Z,14.23
2022-08-03T05:10:54.750Z,14.45
2022-08-03T05:15:58.374Z,14.65
2022-08-03T05:21:03.589Z,14.87
2022-08-03T05:26:07.533Z,15.06
2022-08-03T05:31:12.192Z,15.24
2022-08-03T05:36:17.729Z,15.46
2022-08-03T05:41:36.673Z,16.02
2022-08-03T05:46:44.152Z,17.39
2022-08-03T05:51:49.160Z,18.17
2022-08-03T05:57:04.207Z,19.47
2022-08-03T06:02:08.218Z,18.97
2022-08-03T06:07:13.229Z,19.10
2022-08-03T06:12:17.072Z,19.81
2022-08-03T06:17:20.640Z,21.18
2022-08-03T06:22:25.658Z,23.30
2022-08-03T06:27:37.284Z,24.25
2022-08-03T06:32:42.325Z,25.09
2022-08-03T06:37:57.240Z,25.98
2022-08-03T06:43:01.782Z,26.87
2022-08-03T06:48:08.790Z,27.67
2022-08-03T06:53:19.808Z,28.11
2022-08-03T06:58:25.420Z,28.88
2022-08-03T07:03:29.457Z,29.52
2022-08-03T07:08:34.830Z,30.24
2022-08-03T07:13:38.509Z,30.73
2022-08-03T07:18:42.223Z,31.04
2022-08-03T07:23:47.279Z,30.85
2022-08-03T07:28:50.980Z,31.07
2022-08-03T07:33:54.908Z,30.13
2022-08-03T07:39:00.367Z,30.80
2022-08-03T07:44:19.733Z,30.74
2022-08-03T07:49:23.411Z,31.38
2022-08-03T07:54:29.140Z,31.33
2022-08-03T07:59:56.529Z,31.41
2022-08-03T08:05:05.347Z,30.63
2022-08-03T08:10:12.490Z,30.66
2022-08-03T08:15:17.003Z,31.23
2022-08-03T08:20:27.786Z,31.30
2022-08-03T08:25:35.767Z,31.53
2022-08-03T08:30:39.520Z,31.61
2022-08-03T08:35:43.194Z,31.24
2022-08-03T08:40:49.145Z,31.35
2022-08-03T08:45:53.617Z,31.93
2022-08-03T08:50:58.553Z,32.00
2022-08-03T08:56:04.604Z,32.56
2022-08-03T09:01:08.510Z,31.95
2022-08-03T09:06:12.305Z,32.68
2022-08-03T09:11:17.428Z,33.10
2022-08-03T09:16:22.615Z,32.54
2022-08-03T09:21:32.234Z,32.28
2022-08-03T09:26:39.006Z,32.20
2022-08-03T09:31:44.848Z,32.41
2022-08-03T09:36:50.536Z,33.45
2022-08-03T09:42:08.664Z,33.11
2022-08-03T09:47:13.956Z,33.17
2022-08-03T09:52:37.582Z,32.91
2022-08-03T09:57:46.493Z,34.07
2022-08-03T10:02:50.799Z,32.89
2022-08-03T10:07:54.423Z,33.20
2022-08-03T10:13:00.181Z,33.25
2022-08-03T10:18:04.052Z,34.51
2022-08-03T10:23:09.628Z,34.82
2022-08-03T10:28:17.791Z,33.96
2022-08-03T10:33:50.183Z,33.89
2022-08-03T10:38:53.147Z,34.23
2022-08-03T10:44:04.030Z,34.20
2022-08-03T10:49:08.620Z,34.48
2022-08-03T10:55:09.902Z,34.53
2022-08-03T11:00:17.027Z,35.64
2022-08-03T11:05:28.449Z,34.93
2022-08-03T11:10:33.016Z,34.58
2022-08-03T11:15:38.769Z,34.93
2022-08-03T11:20:47.078Z,35.07
2022-08-03T11:26:19.451Z,34.99
2022-08-03T11:31:50.175Z,33.92
2022-08-03T11:37:30.174Z,34.51
2022-08-03T11:42:41.695Z,34.93
2022-08-03T11:47:50.764Z,35.52
2022-08-03T11:52:55.722Z,35.32
2022-08-03T11:59:12.828Z,35.32
2022-08-03T12:03:25.361Z,34.60
2022-08-03T12:08:34.181Z,35.62
2022-08-03T12:14:28.947Z,35.77
2022-08-03T12:19:08.272Z,34.93
2022-08-03T12:24:12.503Z,34.67
2022-08-03T12:29:18.590Z,35.65
2022-08-03T12:34:23.599Z,34.50
2022-08-03T12:39:30.942Z,35.32
2022-08-03T12:44:37.131Z,35.75
2022-08-03T12:49:50.121Z,35.10
2022-08-03T12:54:57.920Z,35.81
2022-08-03T13:00:21.704Z,35.66
2022-08-03T13:05:44.639Z,34.77
2022-08-03T13:10:49.579Z,34.43
2022-08-03T13:15:53.294Z,34.03
2022-08-03T13:20:58.616Z,33.83
2022-08-03T13:26:02.310Z,34.73
2022-08-03T13:31:06.244Z,35.13
2022-08-03T13:36:12.385Z,35.31
2022-08-03T13:41:16.370Z,34.79
2022-08-03T13:46:21.399Z,34.76
2022-08-03T13:51:27.008Z,34.99
2022-08-03T13:56:32.026Z,35.54
2022-08-03T14:01:54.324Z,35.06
2022-08-03T14:07:00.705Z,34.92
2022-08-03T14:12:08.595Z,35.50
2022-08-03T14:17:12.414Z,35.77
2022-08-03T14:22:17.647Z,35.10
2022-08-03T14:27:22.050Z,35.44
2022-08-03T14:32:25.984Z,34.66
2022-08-03T14:37:31.937Z,35.60
2022-08-03T14:42:36.099Z,34.50
2022-08-03T14:49:02.793Z,34.53
2022-08-03T14:53:05.439Z,33.94
2022-08-03T14:58:18.574Z,34.14
2022-08-03T15:03:26.324Z,33.84
2022-08-03T15:08:31.909Z,34.04
2022-08-03T15:13:37.611Z,34.65
2022-08-03T15:18:41.931Z,34.48
2022-08-03T15:23:47.487Z,34.99
2022-08-03T15:28:51.955Z,34.92
2022-08-03T15:33:56.665Z,34.72
2022-08-03T15:39:01.870Z,34.49
2022-08-03T15:44:09.198Z,34.11
2022-08-03T15:49:13.370Z,33.92
2022-08-03T15:54:18.729Z,34.42
2022-08-03T15:59:22.773Z,34.34
2022-08-03T16:04:26.870Z,33.86
2022-08-03T16:09:42.077Z,33.72
2022-08-03T16:14:54.287Z,33.56
2022-08-03T16:19:59.060Z,33.54
2022-08-03T16:25:06.185Z,33.12
2022-08-03T16:30:20.890Z,33.02
2022-08-03T16:35:24.886Z,33.40
2022-08-03T16:40:31.606Z,33.15
2022-08-03T16:45:35.888Z,32.63
2022-08-03T16:50:40.921Z,31.62
2022-08-03T16:55:52.054Z,30.98
2022-08-03T17:00:57.914Z,31.38
2022-08-03T17:06:04.777Z,30.63
2022-08-03T17:11:15.063Z,30.41
2022-08-03T17:16:20.345Z,29.46
2022-08-03T17:21:29.346Z,29.38
2022-08-03T17:26:38.986Z,29.28
2022-08-03T17:31:48.868Z,28.87
2022-08-03T17:37:26.971Z,28.71
2022-08-03T17:42:38.939Z,28.68
2022-08-03T17:47:43.804Z,28.40
2022-08-03T17:52:50.549Z,28.19
2022-08-03T17:58:06.567Z,27.90
2022-08-03T18:03:23.378Z,27.58
2022-08-03T18:08:34.241Z,27.27
2022-08-03T18:13:53.416Z,27.01
2022-08-03T18:19:09.611Z,26.80
2022-08-03T18:24:20.789Z,26.59
2022-08-03T18:29:31.721Z,26.30
2022-08-03T18:34:41.065Z,26.32
2022-08-03T18:39:58.675Z,26.14
2022-08-03T18:45:15.061Z,26.15
2022-08-03T18:50:36.749Z,25.73
2022-08-03T18:56:01.507Z,24.83
2022-08-03T19:01:59.641Z,24.79
2022-08-03T19:06:49.339Z,24.77
2022-08-03T19:12:12.468Z,24.41
2022-08-03T19:17:23.886Z,23.66
2022-08-03T19:22:34.683Z,23.87
2022-08-03T19:27:40.494Z,23.72
2022-08-03T19:32:51.799Z,23.54
2022-08-03T19:37:56.169Z,23.21
2022-08-03T19:43:08.132Z,23.27
2022-08-03T19:48:18.851Z,23.14
2022-08-03T19:53:35.362Z,23.09
2022-08-03T19:58:42.146Z,22.89
2022-08-03T20:03:49.242Z,22.61
2022-08-03T20:08:55.062Z,22.34
2022-08-03T20:14:00.413Z,22.09
2022-08-03T20:19:13.977Z,21.88
2022-08-03T20:24:26.521Z,21.97
2022-08-03T20:30:05.418Z,21.79
2022-08-03T20:35:00.945Z,21.79
2022-08-03T20:40:07.099Z,21.64
2022-08-03T20:50:37.346Z,20.93
2022-08-03T20:55:47.752Z,20.72
2022-08-03T21:01:06.403Z,20.49
2022-08-03T21:06:14.976Z,20.34
2022-08-03T21:11:20.126Z,20.04
2022-08-03T21:13:07.321Z,21.42
2022-08-03T21:16:28.991Z,20.21
2022-08-03T21:21:34.225Z,20.24
2022-08-03T21:26:40.598Z,20.09
2022-08-03T21:31:46.808Z,20.13
2022-08-03T21:36:54.899Z,19.93
2022-08-03T21:41:58.553Z,19.69
2022-08-03T21:47:03.680Z,19.88
2022-08-03T21:52:08.812Z,19.44
2022-08-03T21:57:20.227Z,19.00
2022-08-03T22:02:31.423Z,19.18
2022-08-03T22:07:38.670Z,19.06
2022-08-03T22:12:42.735Z,18.96
2022-08-03T22:17:55.463Z,19.16
2022-08-03T22:23:05.354Z,18.96
2022-08-03T22:28:10.938Z,18.97
2022-08-03T22:33:16.519Z,18.84
2022-08-03T22:38:21.636Z,18.63
2022-08-03T22:43:28.366Z,18.32
2022-08-03T22:48:34.182Z,18.28
2022-08-03T22:53:41.394Z,18.37
2022-08-03T22:58:44.992Z,18.46
2022-08-03T23:03:59.804Z,18.41
2022-08-03T23:09:09.901Z,18.25
2022-08-03T23:14:16.260Z,18.11
2022-08-03T23:19:25.722Z,18.17
2022-08-03T23:24:31.723Z,17.99
2022-08-03T23:29:36.654Z,17.98
2022-08-03T23:35:01.139Z,18.06
2022-08-03T23:40:07.887Z,17.94
2022-08-03T23:45:13.318Z,17.57
2022-08-03T23:50:17.512Z,17.52
2022-08-03T23:55:39.610Z,17.57
